Augusta, Kansas
Current Conditions -  °F | °C
As of 1:55 PM on Sunday 21 Dec 2014 (Local Time) from KEQA Reporting Station
Haze Haze  
Wind Chill: 37°   Ceiling: 800
Heat Index: 45°   Visibility: 5mi
Dew Point: 43°   Wind: 18mph
Humidity: 93%   Direction: 180°S
Pressure: 29.79"   Gusts: 24mph
Location:  37.68°N, 96.98°W
Report Text: KEQA 211955Z AUTO 18016G21KT 5SM BR OVC008 07/06 A2979 RMK AO2
Loading
Personal Weather Stations






























Interactive Weather Map New forecast layout! Learn more

10-Day Weather Forecast

Advertisements
Track Severe Weather on mobile